Terminal Aerodrome Forecast
Issued by NWS Sioux Falls, SD

Home | Current Version | Previous Version | Graphics & Text | Print | Product List | Glossary Off
Versions: 1 2 3 4 5 6 7 8 9 10 11 12 13 14

000
FTUS43 KFSD 162325
TAFSUX
TAF
KSUX 162325Z 1700/1724 01009KT P6SM SCT150
     FM170800 03008KT 6SM BR SCT005 BKN010 OVC020
     FM171500 36007KT P6SM SCT010 BKN020
     FM171700 34009KT P6SM SCT020=

USA.gov is the U.S. government's official web portal to all federal, state and local government web resources and services.